Stolt Dipper — ZCMY3 — position and weather

sailwx.info

Track history (hours):
 
Tides and Currents Weather Stations Pressure Air Temp Water Temp Dewpoint Dewpoint Depression Visibility Wind Speed Wind Dir Waves Ship Positions

Stolt Dipper

Last reported at 2016-Sep-27 19:34 UTC. Time now 2016-Sep-27 20:46 UTC.
Position N 51°16' E 004°17'.

Length 96 m; draft 5.5 m.

Type: Tanker. MMSI: 319036000.

Date/timePositionNaut miles runAvg speedWind from/ knotsBaromVisibWave heightAir tempDewpointWater temp
2016-Sep-27 19:34N 51°16' E 004°17'34 6.8
2016-Sep-27 14:34N 51°24' E 003°24'1211.9
2016-Sep-27 13:34N 51°24' E 003°05'3411.3
2016-Sep-27 10:34N 51°16' E 002°13'13213.2
2016-Sep-27 00:34N 49°40' W 000°10'30 7.3
2016-Sep-26 20:27N 49°28' E 000°32'0 0.0
2016-Sep-26 19:30N 49°28' E 000°32'0 0.0
2016-Sep-26 00:18N 49°28' E 000°32'0 0.0
2016-Sep-25 17:17N 49°28' E 000°32'3 3.8
2016-Sep-25 16:33N 49°28' E 000°28'1514.6
2016-Sep-25 15:33N 49°26' E 000°06'7 6.9
2016-Sep-25 14:31N 49°28' W 000°05'0 0.0
2016-Sep-25 12:31N 49°28' W 000°05'0 0.0
2016-Sep-25 11:31N 49°28' W 000°05'0 0.0
2016-Sep-25 10:31N 49°28' W 000°05'0 0.0
2016-Sep-25 09:31N 49°28' W 000°05'0 0.0
2016-Sep-25 07:31N 49°28' W 000°05'0 0.0
2016-Sep-25 04:31N 49°28' W 000°05'0 0.0
2016-Sep-25 00:31N 49°28' W 000°05'0 0.0
2016-Sep-24 22:31N 49°28' W 000°05'0 0.0
2016-Sep-24 21:31N 49°28' W 000°05'0 0.0
2016-Sep-24 19:31N 49°28' W 000°05'0 0.0
2016-Sep-24 18:31N 49°28' W 000°05'0 0.0
2016-Sep-24 17:31N 49°28' W 000°05'0 0.0
2016-Sep-24 16:28N 49°28' W 000°05'0 0.0
2016-Sep-24 14:31N 49°28' W 000°05'0 0.0
2016-Sep-24 12:31N 49°28' W 000°05'0 0.0
2016-Sep-24 10:31N 49°28' W 000°05'0 0.0
2016-Sep-24 09:31N 49°28' W 000°05'0 0.0
2016-Sep-24 03:31N 49°28' W 000°05'0 0.0
2016-Sep-24 02:31N 49°28' W 000°05'0 0.0
2016-Sep-24 01:31N 49°28' W 000°05'0 0.0
2016-Sep-24 00:31N 49°28' W 000°05'35 7.0
2016-Sep-23 19:33N 49°26' E 000°48'5 0.3
2016-Sep-23 02:15N 49°25' E 000°56'3 3.5
2016-Sep-23 01:31N 49°25' E 000°52'10 8.0
2016-Sep-23 00:19N 49°31' E 000°41'6 8.0
2016-Sep-22 23:33N 49°28' E 000°32'29 9.6
2016-Sep-22 20:34N 49°37' W 000°11'8910.9
2016-Sep-22 12:24N 50°50' E 001°10'10012.6
2016-Sep-22 04:28N 52°02' E 002°59'1111.8
2016-Sep-22 03:33N 52°03' E 003°17'3612.1
2016-Sep-22 00:34N 51°55' E 004°14'3 2.8
2016-Sep-21 23:33N 51°53' E 004°16'0 0.0
2016-Sep-21 22:14N 51°53' E 004°16'0 0.0
2016-Sep-21 19:32N 51°53' E 004°16'0 0.0
2016-Sep-21 16:29N 51°53' E 004°16'0 0.0
2016-Sep-21 09:26N 51°53' E 004°16'0 0.0
2016-Sep-21 08:32N 51°53' E 004°16'0 0.0
2016-Sep-21 05:32N 51°53' E 004°16'13 6.8
2016-Sep-21 03:33N 51°60' E 003°58'1211.7
2016-Sep-21 02:33N 51°58' E 003°39'7 0.6
2016-Sep-20 14:33N 52°03' E 003°47'1212.2
2016-Sep-20 13:34N 51°59' E 004°05'9 3.0
2016-Sep-20 10:30N 51°53' E 004°17'0 0.0
2016-Sep-20 08:12N 51°53' E 004°17'0 0.0
2016-Sep-20 07:24N 51°53' E 004°17'0 0.0
2016-Sep-20 06:33N 51°53' E 004°17'0 0.0
2016-Sep-20 02:30N 51°53' E 004°17'0 0.0
2016-Sep-19 19:18N 51°53' E 004°17'0 0.0
2016-Sep-19 18:27N 51°53' E 004°17'11 6.0
2016-Sep-19 16:33N 51°60' E 004°02'2110.4
2016-Sep-19 14:32N 52°19' E 003°47'2013.5
2016-Sep-19 13:03N 52°38' E 003°54'6912.6
2016-Sep-19 07:33N 53°33' E 005°03'1212.2
2016-Sep-19 06:33N 53°37' E 005°23'3411.2
2016-Sep-19 03:34N 53°38' E 006°19'1414.3
2016-Sep-19 02:33N 53°33' E 006°42'17 8.5
2016-Sep-19 00:33N 53°19' E 006°58'0 0.0
2016-Sep-18 19:30N 53°19' E 006°58'0 0.0
2016-Sep-18 15:33N 53°19' E 006°58'0 0.0
2016-Sep-18 14:33N 53°19' E 006°58'0 0.1
2016-Sep-18 10:34N 53°19' E 006°58'1110.7
2016-Sep-18 09:33N 53°29' E 006°50'8910.8
2016-Sep-18 01:21N 53°05' E 004°27'911.4
2016-Sep-18 00:33N 52°57' E 004°19'2211.2
2016-Sep-17 22:33N 52°39' E 003°58'1111.0
2016-Sep-17 21:33N 52°31' E 003°45'1110.9
2016-Sep-17 20:31N 52°23' E 003°32'  
Track history (hours):
 
Tides and Currents Weather Stations Pressure Air Temp Water Temp Dewpoint Dewpoint Depression Visibility Wind Speed Wind Dir Waves Ship Positions

Stolt Dipper

Last reported at 2016-Sep-27 19:34 UTC. Time now 2016-Sep-27 20:46 UTC.
Position N 51°16' E 004°17'.

Length 96 m; draft 5.5 m.

Type: Tanker. MMSI: 319036000.

Date/timePositionNaut miles runAvg speedWind from/ knotsBaromVisibWave heightAir tempDewpointWater temp
2016-Sep-27 19:34N 51°16' E 004°17'34 6.8
2016-Sep-27 14:34N 51°24' E 003°24'1211.9
2016-Sep-27 13:34N 51°24' E 003°05'3411.3
2016-Sep-27 10:34N 51°16' E 002°13'13213.2
2016-Sep-27 00:34N 49°40' W 000°10'30 7.3
2016-Sep-26 20:27N 49°28' E 000°32'0 0.0
2016-Sep-26 19:30N 49°28' E 000°32'0 0.0
2016-Sep-26 00:18N 49°28' E 000°32'0 0.0
2016-Sep-25 17:17N 49°28' E 000°32'3 3.8
2016-Sep-25 16:33N 49°28' E 000°28'1514.6
2016-Sep-25 15:33N 49°26' E 000°06'7 6.9
2016-Sep-25 14:31N 49°28' W 000°05'0 0.0
2016-Sep-25 12:31N 49°28' W 000°05'0 0.0
2016-Sep-25 11:31N 49°28' W 000°05'0 0.0
2016-Sep-25 10:31N 49°28' W 000°05'0 0.0
2016-Sep-25 09:31N 49°28' W 000°05'0 0.0
2016-Sep-25 07:31N 49°28' W 000°05'0 0.0
2016-Sep-25 04:31N 49°28' W 000°05'0 0.0
2016-Sep-25 00:31N 49°28' W 000°05'0 0.0
2016-Sep-24 22:31N 49°28' W 000°05'0 0.0
2016-Sep-24 21:31N 49°28' W 000°05'0 0.0
2016-Sep-24 19:31N 49°28' W 000°05'0 0.0
2016-Sep-24 18:31N 49°28' W 000°05'0 0.0
2016-Sep-24 17:31N 49°28' W 000°05'0 0.0
2016-Sep-24 16:28N 49°28' W 000°05'0 0.0
2016-Sep-24 14:31N 49°28' W 000°05'0 0.0
2016-Sep-24 12:31N 49°28' W 000°05'0 0.0
2016-Sep-24 10:31N 49°28' W 000°05'0 0.0
2016-Sep-24 09:31N 49°28' W 000°05'0 0.0
2016-Sep-24 03:31N 49°28' W 000°05'0 0.0
2016-Sep-24 02:31N 49°28' W 000°05'0 0.0
2016-Sep-24 01:31N 49°28' W 000°05'0 0.0
2016-Sep-24 00:31N 49°28' W 000°05'35 7.0
2016-Sep-23 19:33N 49°26' E 000°48'5 0.3
2016-Sep-23 02:15N 49°25' E 000°56'3 3.5
2016-Sep-23 01:31N 49°25' E 000°52'10 8.0
2016-Sep-23 00:19N 49°31' E 000°41'6 8.0
2016-Sep-22 23:33N 49°28' E 000°32'29 9.6
2016-Sep-22 20:34N 49°37' W 000°11'8910.9
2016-Sep-22 12:24N 50°50' E 001°10'10012.6
2016-Sep-22 04:28N 52°02' E 002°59'1111.8
2016-Sep-22 03:33N 52°03' E 003°17'3612.1
2016-Sep-22 00:34N 51°55' E 004°14'3 2.8
2016-Sep-21 23:33N 51°53' E 004°16'0 0.0
2016-Sep-21 22:14N 51°53' E 004°16'0 0.0
2016-Sep-21 19:32N 51°53' E 004°16'0 0.0
2016-Sep-21 16:29N 51°53' E 004°16'0 0.0
2016-Sep-21 09:26N 51°53' E 004°16'0 0.0
2016-Sep-21 08:32N 51°53' E 004°16'0 0.0
2016-Sep-21 05:32N 51°53' E 004°16'13 6.8
2016-Sep-21 03:33N 51°60' E 003°58'1211.7
2016-Sep-21 02:33N 51°58' E 003°39'7 0.6
2016-Sep-20 14:33N 52°03' E 003°47'1212.2
2016-Sep-20 13:34N 51°59' E 004°05'9 3.0
2016-Sep-20 10:30N 51°53' E 004°17'0 0.0
2016-Sep-20 08:12N 51°53' E 004°17'0 0.0
2016-Sep-20 07:24N 51°53' E 004°17'0 0.0
2016-Sep-20 06:33N 51°53' E 004°17'0 0.0
2016-Sep-20 02:30N 51°53' E 004°17'0 0.0
2016-Sep-19 19:18N 51°53' E 004°17'0 0.0
2016-Sep-19 18:27N 51°53' E 004°17'11 6.0
2016-Sep-19 16:33N 51°60' E 004°02'2110.4
2016-Sep-19 14:32N 52°19' E 003°47'2013.5
2016-Sep-19 13:03N 52°38' E 003°54'6912.6
2016-Sep-19 07:33N 53°33' E 005°03'1212.2
2016-Sep-19 06:33N 53°37' E 005°23'3411.2
2016-Sep-19 03:34N 53°38' E 006°19'1414.3
2016-Sep-19 02:33N 53°33' E 006°42'17 8.5
2016-Sep-19 00:33N 53°19' E 006°58'0 0.0
2016-Sep-18 19:30N 53°19' E 006°58'0 0.0
2016-Sep-18 15:33N 53°19' E 006°58'0 0.0
2016-Sep-18 14:33N 53°19' E 006°58'0 0.1
2016-Sep-18 10:34N 53°19' E 006°58'1110.7
2016-Sep-18 09:33N 53°29' E 006°50'8910.8
2016-Sep-18 01:21N 53°05' E 004°27'911.4
2016-Sep-18 00:33N 52°57' E 004°19'2211.2
2016-Sep-17 22:33N 52°39' E 003°58'1111.0
2016-Sep-17 21:33N 52°31' E 003°45'1110.9
2016-Sep-17 20:31N 52°23' E 003°32'  

Dump ship's entire track history